ACA1825 CYVR-KSEA
Flight info
| Callsign | ACA1825 |
|---|---|
| Flight time | 0h 28m |
| Altitude | 17000 |
| Route | DCT ROESH MARNR8 |
| Aircraft | A333/H-V/N |
Departure
| Time | 2026-05-05 02:49 |
|---|---|
| Airport | Vancouver International Airport (CYVR) |
Arrival
| Time | 2026-05-05 03:17 |
|---|---|
| Airport | Seattle–Tacoma International Airport (KSEA) |
| Time | Latitude | Longitude | Altitude | Speed | Heading |
|---|---|---|---|---|---|
| 2026-05-05 02:19 | 49.19821 | -123.18289 | 21 ft | 0 kts | 11° |
| 2026-05-05 02:29 | 49.19818 | -123.18290 | 25 ft | 3 kts | 11° |
| 2026-05-05 02:30 | 49.19792 | -123.18294 | 24 ft | 4 kts | 355° |
| 2026-05-05 02:30 | 49.19766 | -123.18285 | 24 ft | 4 kts | 329° |
| 2026-05-05 02:30 | 49.19750 | -123.18259 | 24 ft | 3 kts | 282° |
| 2026-05-05 02:30 | 49.19749 | -123.18255 | 24 ft | 3 kts | 279° |
| 2026-05-05 02:35 | 49.19749 | -123.18254 | 24 ft | 0 kts | 279° |
| 2026-05-05 02:35 | 49.19751 | -123.18280 | 24 ft | 7 kts | 279° |
| 2026-05-05 02:35 | 49.19771 | -123.18386 | 25 ft | 12 kts | 297° |
| 2026-05-05 02:36 | 49.19800 | -123.18511 | 23 ft | 13 kts | 274° |
| 2026-05-05 02:36 | 49.19757 | -123.18609 | 23 ft | 12 kts | 207° |
| 2026-05-05 02:36 | 49.19680 | -123.18671 | 25 ft | 14 kts | 199° |
| 2026-05-05 02:36 | 49.19578 | -123.18704 | 24 ft | 16 kts | 190° |
| 2026-05-05 02:37 | 49.19463 | -123.18735 | 22 ft | 18 kts | 189° |
| 2026-05-05 02:37 | 49.19383 | -123.18845 | 25 ft | 15 kts | 253° |
| 2026-05-05 02:37 | 49.19308 | -123.18865 | 23 ft | 15 kts | 147° |
| 2026-05-05 02:37 | 49.19206 | -123.18745 | 24 ft | 19 kts | 142° |
| 2026-05-05 02:38 | 49.19103 | -123.18621 | 24 ft | 20 kts | 141° |
| 2026-05-05 02:38 | 49.18990 | -123.18478 | 24 ft | 22 kts | 134° |
| 2026-05-05 02:38 | 49.18933 | -123.18260 | 25 ft | 23 kts | 102° |
| 2026-05-05 02:38 | 49.18905 | -123.18016 | 23 ft | 24 kts | 98° |
| 2026-05-05 02:39 | 49.18877 | -123.17765 | 26 ft | 24 kts | 100° |
| 2026-05-05 02:39 | 49.18848 | -123.17511 | 26 ft | 25 kts | 99° |
| 2026-05-05 02:39 | 49.18818 | -123.17245 | 25 ft | 26 kts | 99° |
| 2026-05-05 02:39 | 49.18790 | -123.16999 | 25 ft | 23 kts | 100° |
| 2026-05-05 02:40 | 49.18762 | -123.16746 | 26 ft | 25 kts | 98° |
| 2026-05-05 02:40 | 49.18733 | -123.16486 | 26 ft | 25 kts | 101° |
| 2026-05-05 02:40 | 49.18697 | -123.16296 | 25 ft | 12 kts | 121° |
| 2026-05-05 02:40 | 49.18680 | -123.16264 | 25 ft | 0 kts | 132° |
| 2026-05-05 02:41 | 49.18678 | -123.16260 | 24 ft | 0 kts | 132° |
| 2026-05-05 02:44 | 49.18658 | -123.16224 | 24 ft | 8 kts | 126° |
| 2026-05-05 02:44 | 49.18630 | -123.16107 | 25 ft | 13 kts | 104° |
| 2026-05-05 02:44 | 49.18613 | -123.16060 | 26 ft | 0 kts | 132° |
| 2026-05-05 02:45 | 49.18606 | -123.16053 | 25 ft | 0 kts | 149° |
| 2026-05-05 02:47 | 49.18583 | -123.16042 | 24 ft | 9 kts | 169° |
| 2026-05-05 02:47 | 49.18512 | -123.16066 | 26 ft | 11 kts | 214° |
| 2026-05-05 02:48 | 49.18487 | -123.16186 | 23 ft | 13 kts | 273° |
| 2026-05-05 02:48 | 49.18512 | -123.16421 | 23 ft | 44 kts | 279° |
| 2026-05-05 02:48 | 49.18619 | -123.17355 | 27 ft | 133 kts | 279° |
| 2026-05-05 02:48 | 49.18829 | -123.19167 | 156 ft | 206 kts | 279° |
| 2026-05-05 02:49 | 49.19119 | -123.21492 | 708 ft | 235 kts | 280° |
| 2026-05-05 02:49 | 49.19424 | -123.23891 | 1757 ft | 224 kts | 279° |
| 2026-05-05 02:49 | 49.19718 | -123.26308 | 2525 ft | 240 kts | 280° |
| 2026-05-05 02:49 | 49.20006 | -123.28924 | 2936 ft | 256 kts | 279° |
| 2026-05-05 02:50 | 49.20280 | -123.31633 | 3307 ft | 258 kts | 277° |
| 2026-05-05 02:50 | 49.20224 | -123.34352 | 3659 ft | 260 kts | 260° |
| 2026-05-05 02:50 | 49.19530 | -123.36921 | 4028 ft | 263 kts | 235° |
| 2026-05-05 02:50 | 49.18126 | -123.38738 | 4419 ft | 273 kts | 206° |
| 2026-05-05 02:51 | 49.16234 | -123.39227 | 5183 ft | 282 kts | 174° |
| 2026-05-05 02:51 | 49.14370 | -123.38382 | 6162 ft | 284 kts | 156° |
| 2026-05-05 02:51 | 49.12573 | -123.37094 | 7130 ft | 286 kts | 152° |
| 2026-05-05 02:51 | 49.10778 | -123.35746 | 8095 ft | 288 kts | 152° |
| 2026-05-05 02:52 | 49.08967 | -123.34399 | 9065 ft | 291 kts | 151° |
| 2026-05-05 02:52 | 49.07124 | -123.33048 | 10003 ft | 295 kts | 151° |
| 2026-05-05 02:52 | 49.05230 | -123.31659 | 10547 ft | 312 kts | 149° |
| 2026-05-05 02:52 | 49.03235 | -123.30143 | 10832 ft | 335 kts | 149° |
| 2026-05-05 02:53 | 49.01087 | -123.28529 | 11329 ft | 349 kts | 150° |
| 2026-05-05 02:53 | 48.98873 | -123.26902 | 12012 ft | 357 kts | 150° |
| 2026-05-05 02:53 | 48.96593 | -123.25248 | 12739 ft | 364 kts | 150° |
| 2026-05-05 02:53 | 48.94292 | -123.23593 | 13465 ft | 370 kts | 150° |
| 2026-05-05 02:54 | 48.91934 | -123.21905 | 14132 ft | 376 kts | 150° |
| 2026-05-05 02:54 | 48.89575 | -123.20220 | 14684 ft | 379 kts | 150° |
| 2026-05-05 02:54 | 48.87183 | -123.18513 | 14953 ft | 381 kts | 150° |
| 2026-05-05 02:54 | 48.84770 | -123.16796 | 14999 ft | 383 kts | 150° |
| 2026-05-05 02:55 | 48.82345 | -123.15076 | 14999 ft | 384 kts | 150° |
| 2026-05-05 02:55 | 48.79913 | -123.13353 | 14998 ft | 385 kts | 150° |
| 2026-05-05 02:55 | 48.77505 | -123.11648 | 15000 ft | 384 kts | 151° |
| 2026-05-05 02:55 | 48.75082 | -123.09934 | 14996 ft | 383 kts | 151° |
| 2026-05-05 02:56 | 48.72666 | -123.08226 | 14996 ft | 383 kts | 151° |
| 2026-05-05 02:56 | 48.70276 | -123.06537 | 14995 ft | 383 kts | 151° |
| 2026-05-05 02:56 | 48.67859 | -123.04830 | 14994 ft | 383 kts | 151° |
| 2026-05-05 02:56 | 48.65436 | -123.03122 | 14995 ft | 383 kts | 151° |
| 2026-05-05 02:57 | 48.62957 | -123.01617 | 14987 ft | 386 kts | 160° |
| 2026-05-05 02:57 | 48.60327 | -123.00676 | 15022 ft | 387 kts | 165° |
| 2026-05-05 02:57 | 48.57684 | -122.99905 | 15024 ft | 387 kts | 166° |
| 2026-05-05 02:57 | 48.55068 | -122.99167 | 15023 ft | 387 kts | 166° |
| 2026-05-05 02:58 | 48.52417 | -122.98417 | 15023 ft | 387 kts | 166° |
| 2026-05-05 02:58 | 48.49763 | -122.97662 | 15020 ft | 387 kts | 166° |
| 2026-05-05 02:58 | 48.47116 | -122.96907 | 15021 ft | 387 kts | 166° |
| 2026-05-05 02:58 | 48.44473 | -122.96152 | 15020 ft | 387 kts | 166° |
| 2026-05-05 02:59 | 48.41848 | -122.95401 | 15017 ft | 387 kts | 166° |
| 2026-05-05 02:59 | 48.39201 | -122.94644 | 14992 ft | 387 kts | 166° |
| 2026-05-05 02:59 | 48.36551 | -122.93887 | 14992 ft | 387 kts | 166° |
| 2026-05-05 02:59 | 48.33908 | -122.93132 | 14977 ft | 387 kts | 166° |
| 2026-05-05 03:00 | 48.31262 | -122.92377 | 14971 ft | 387 kts | 166° |
| 2026-05-05 03:00 | 48.28642 | -122.91631 | 14971 ft | 385 kts | 166° |
| 2026-05-05 03:00 | 48.26042 | -122.90893 | 14865 ft | 375 kts | 166° |
| 2026-05-05 03:00 | 48.23483 | -122.90168 | 14890 ft | 373 kts | 166° |
| 2026-05-05 03:01 | 48.20924 | -122.89441 | 14952 ft | 374 kts | 166° |
| 2026-05-05 03:01 | 48.18379 | -122.88716 | 14667 ft | 369 kts | 166° |
| 2026-05-05 03:01 | 48.15881 | -122.88008 | 14190 ft | 368 kts | 166° |
| 2026-05-05 03:01 | 48.13376 | -122.87276 | 13707 ft | 365 kts | 163° |
| 2026-05-05 03:02 | 48.11054 | -122.85862 | 13222 ft | 358 kts | 141° |
| 2026-05-05 03:02 | 48.09364 | -122.83215 | 12702 ft | 348 kts | 115° |
| 2026-05-05 03:02 | 48.08613 | -122.79855 | 12277 ft | 336 kts | 91° |
| 2026-05-05 03:02 | 48.08527 | -122.76444 | 11785 ft | 330 kts | 84° |
| 2026-05-05 03:03 | 48.08558 | -122.73027 | 11331 ft | 326 kts | 83° |
| 2026-05-05 03:03 | 48.08610 | -122.69652 | 10872 ft | 322 kts | 83° |
| 2026-05-05 03:03 | 48.08674 | -122.66316 | 10413 ft | 318 kts | 84° |
| 2026-05-05 03:03 | 48.08469 | -122.63068 | 9957 ft | 320 kts | 100° |
| 2026-05-05 03:04 | 48.07580 | -122.60032 | 9426 ft | 320 kts | 119° |
| 2026-05-05 03:04 | 48.06086 | -122.57580 | 8883 ft | 320 kts | 138° |
| 2026-05-05 03:04 | 48.04169 | -122.56000 | 8348 ft | 307 kts | 157° |
| 2026-05-05 03:04 | 48.02148 | -122.55201 | 7845 ft | 297 kts | 166° |
| 2026-05-05 03:05 | 48.00118 | -122.54712 | 7328 ft | 294 kts | 169° |
| 2026-05-05 03:05 | 47.98108 | -122.54195 | 6856 ft | 292 kts | 159° |
| 2026-05-05 03:05 | 47.96401 | -122.52583 | 6381 ft | 293 kts | 128° |
| 2026-05-05 03:05 | 47.95473 | -122.49948 | 6064 ft | 283 kts | 97° |
| 2026-05-05 03:06 | 47.95326 | -122.47137 | 5999 ft | 266 kts | 85° |
| 2026-05-05 03:06 | 47.95349 | -122.44438 | 5997 ft | 259 kts | 83° |
| 2026-05-05 03:06 | 47.95392 | -122.41740 | 6002 ft | 259 kts | 83° |
| 2026-05-05 03:06 | 47.95436 | -122.39087 | 6004 ft | 259 kts | 83° |
| 2026-05-05 03:07 | 47.95481 | -122.36402 | 6004 ft | 259 kts | 83° |
| 2026-05-05 03:07 | 47.95474 | -122.33705 | 5992 ft | 261 kts | 92° |
| 2026-05-05 03:07 | 47.94883 | -122.31115 | 6003 ft | 268 kts | 117° |
| 2026-05-05 03:07 | 47.93620 | -122.29000 | 6005 ft | 285 kts | 138° |
| 2026-05-05 03:08 | 47.91951 | -122.27333 | 6006 ft | 290 kts | 147° |
| 2026-05-05 03:08 | 47.90172 | -122.25892 | 6003 ft | 290 kts | 151° |
| 2026-05-05 03:08 | 47.88242 | -122.25001 | 5956 ft | 292 kts | 171° |
| 2026-05-05 03:08 | 47.86237 | -122.25117 | 5609 ft | 292 kts | 189° |
| 2026-05-05 03:09 | 47.84274 | -122.25888 | 5170 ft | 290 kts | 197° |
| 2026-05-05 03:09 | 47.82439 | -122.26873 | 5013 ft | 268 kts | 200° |
| 2026-05-05 03:09 | 47.80749 | -122.27893 | 4783 ft | 256 kts | 202° |
| 2026-05-05 03:09 | 47.79163 | -122.28931 | 4302 ft | 247 kts | 203° |
| 2026-05-05 03:10 | 47.77644 | -122.29951 | 4042 ft | 228 kts | 206° |
| 2026-05-05 03:10 | 47.76348 | -122.31076 | 4007 ft | 204 kts | 201° |
| 2026-05-05 03:10 | 47.75038 | -122.31480 | 3994 ft | 187 kts | 181° |
| 2026-05-05 03:10 | 47.73791 | -122.31495 | 3992 ft | 174 kts | 178° |
| 2026-05-05 03:11 | 47.72588 | -122.31468 | 3998 ft | 175 kts | 177° |
| 2026-05-05 03:11 | 47.71349 | -122.31448 | 3977 ft | 179 kts | 178° |
| 2026-05-05 03:11 | 47.70098 | -122.31466 | 3990 ft | 179 kts | 180° |
| 2026-05-05 03:11 | 47.68847 | -122.31565 | 3997 ft | 179 kts | 180° |
| 2026-05-05 03:12 | 47.67638 | -122.31600 | 3998 ft | 179 kts | 177° |
| 2026-05-05 03:12 | 47.66371 | -122.31586 | 4015 ft | 180 kts | 177° |
| 2026-05-05 03:12 | 47.65537 | -122.31593 | 4028 ft | 180 kts | 178° |
| 2026-05-05 03:12 | 47.64281 | -122.31611 | 3914 ft | 180 kts | 177° |
| 2026-05-05 03:13 | 47.63031 | -122.31622 | 3677 ft | 177 kts | 177° |
| 2026-05-05 03:13 | 47.61805 | -122.31631 | 3412 ft | 174 kts | 177° |
| 2026-05-05 03:13 | 47.60645 | -122.31644 | 3165 ft | 162 kts | 177° |
| 2026-05-05 03:13 | 47.59565 | -122.31657 | 2956 ft | 148 kts | 176° |
| 2026-05-05 03:14 | 47.58560 | -122.31667 | 2765 ft | 142 kts | 176° |
| 2026-05-05 03:14 | 47.57576 | -122.31675 | 2589 ft | 141 kts | 176° |
| 2026-05-05 03:14 | 47.56590 | -122.31683 | 2400 ft | 142 kts | 176° |
| 2026-05-05 03:14 | 47.55606 | -122.31691 | 2214 ft | 141 kts | 176° |
| 2026-05-05 03:15 | 47.54633 | -122.31700 | 2027 ft | 139 kts | 177° |
| 2026-05-05 03:15 | 47.53681 | -122.31708 | 1847 ft | 137 kts | 179° |
| 2026-05-05 03:15 | 47.52736 | -122.31718 | 1661 ft | 135 kts | 179° |
| 2026-05-05 03:15 | 47.51795 | -122.31726 | 1486 ft | 135 kts | 180° |
| 2026-05-05 03:16 | 47.50861 | -122.31737 | 1295 ft | 134 kts | 180° |
| 2026-05-05 03:16 | 47.49927 | -122.31738 | 1128 ft | 134 kts | 179° |
| 2026-05-05 03:16 | 47.49010 | -122.31755 | 943 ft | 130 kts | 181° |
| 2026-05-05 03:16 | 47.48080 | -122.31781 | 779 ft | 136 kts | 178° |
| 2026-05-05 03:17 | 47.47152 | -122.31768 | 598 ft | 133 kts | 182° |
| 2026-05-05 03:17 | 47.46234 | -122.31788 | 422 ft | 131 kts | 183° |
| 2026-05-05 03:17 | 47.45369 | -122.31796 | 393 ft | 106 kts | 181° |
| 2026-05-05 03:17 | 47.44925 | -122.31801 | 394 ft | 25 kts | 180° |
| 2026-05-05 03:18 | 47.44736 | -122.31796 | 396 ft | 28 kts | 174° |
| 2026-05-05 03:18 | 47.44547 | -122.31724 | 396 ft | 28 kts | 154° |
| 2026-05-05 03:18 | 47.44374 | -122.31581 | 395 ft | 27 kts | 150° |
| 2026-05-05 03:18 | 47.44244 | -122.31422 | 395 ft | 24 kts | 122° |
| 2026-05-05 03:19 | 47.44208 | -122.31292 | 395 ft | 6 kts | 107° |
| 2026-05-05 03:19 | 47.44168 | -122.31159 | 395 ft | 19 kts | 122° |
| 2026-05-05 03:19 | 47.44064 | -122.31028 | 396 ft | 20 kts | 150° |
| 2026-05-05 03:20 | 47.43938 | -122.30915 | 395 ft | 22 kts | 141° |
| 2026-05-05 03:20 | 47.43887 | -122.30717 | 396 ft | 16 kts | 83° |
| 2026-05-05 03:20 | 47.43888 | -122.30705 | 392 ft | 0 kts | 78° |
| 2026-05-05 03:22 | 47.43888 | -122.30704 | 393 ft | 0 kts | 78° |
| 2026-05-05 03:22 | 47.43901 | -122.30672 | 396 ft | 13 kts | 50° |
| 2026-05-05 03:22 | 47.44007 | -122.30627 | 393 ft | 18 kts | 0° |
| 2026-05-05 03:23 | 47.44171 | -122.30627 | 396 ft | 24 kts | 0° |
| 2026-05-05 03:23 | 47.44336 | -122.30626 | 395 ft | 24 kts | 360° |
| 2026-05-05 03:23 | 47.44479 | -122.30625 | 395 ft | 19 kts | 0° |
| 2026-05-05 03:23 | 47.44637 | -122.30624 | 394 ft | 23 kts | 0° |
| 2026-05-05 03:24 | 47.44733 | -122.30615 | 395 ft | 6 kts | 24° |
| 2026-05-05 03:24 | 47.44754 | -122.30518 | 393 ft | 14 kts | 87° |
| 2026-05-05 03:24 | 47.44752 | -122.30392 | 393 ft | 2 kts | 98° |
| 2026-05-05 03:24 | 47.44742 | -122.30358 | 394 ft | 6 kts | 121° |
| 2026-05-05 03:25 | 47.44700 | -122.30277 | 397 ft | 11 kts | 124° |
| 2026-05-05 03:25 | 47.44665 | -122.30229 | 395 ft | 0 kts | 146° |
| 2026-05-05 03:25 | 47.44665 | -122.30228 | 395 ft | 2 kts | 146° |
| 2026-05-05 03:26 | 47.44615 | -122.30205 | 396 ft | 10 kts | 174° |
| 2026-05-05 03:26 | 47.44560 | -122.30175 | 396 ft | 8 kts | 138° |